Aérodrome :
LOGIN :

S'inscrire | Disclaimer

   EN    FR    IT 

 










Légende :    VFR   VFR Marginal   IFR   IFR Intensif   IFR Très Intensif
Visi : 
Plafond : 
>= 8 km
>= 3000ft
5 à 8 km
1000 à 3000 ft
1500m à 5 km
500 à 1000 ft
800 à 1500m
200 à 500 ft
< 800m
< 200 ft
Symboles :   Orages  Brouillard  Fortes neiges  Fortes précipitations  Vent > 20 kt
SIGMETs :   Divers  Orages  Givrage  Turbulence  Onde Orograph.  Cendres Volcan.






- Altitude de l'aérodrome : 170 ft
- Code IATA : KRP


EKKA - Karup

DERNIER METAR :
  • 130913Z AUTO 09015KT 4700 BR OVC007/// 16/15 Q1007

METARs EXPIRÉS :
  • 130906Z 09013KT 5000 -DZ OVC007 16/15 Q1007
  • 130850Z AUTO 10013KT 9999 OVC008/// 16/15 Q1007
  • 130844Z 10015KT 8000 -DZ OVC008 16/15 Q1007
  • 130820Z AUTO 10015KT 7000 -DZ OVC008/// 16/15 Q1007
  • 130804Z AUTO 10017KT 4700 DZ OVC009/// 16/15 Q1007
  • 130748Z AUTO 10014KT 9999 OVC009/// 16/15 Q1007
  • 130739Z AUTO 10016G27KT 9000 OVC010/// 16/14 Q1007
  • 130724Z AUTO 09015KT 7000 OVC010/// 16/15 Q1007
  • 130650Z AUTO 09018KT 9999 OVC011/// 16/15 Q1007
  • 130633Z AUTO 09018KT 9999 OVC014/// 16/14 Q1007
  • 130620Z AUTO 08016KT 9999 OVC021/// 16/14 Q1007
  • 130550Z AUTO 09015KT 9999 OVC022/// 16/14 Q1007
  • 130520Z AUTO 09014KT 9999 OVC024/// 16/14 Q1007
  • 130450Z AUTO 08015KT 9999 OVC026/// 16/14 Q1007
  • 130420Z AUTO 07013KT 9999 OVC028/// 16/14 Q1007

TAF TAF EKKA
Valide du 13 à 09h jusqu'au 14 à 09h UTC


130802Z 1309/1409 06012KT 9999 BKN040
TEMPO 1309/1318 3000 RA BR BKN005
BECMG 1317/1320 17008KT
TEMPO 1318/1320 5000 -SHRA BKN010 SCT015CB
TEMPO 1320/1406 2500 BR -SHRA BKN008 FEW015CB



MET'MAP, la Météo Aéronautique d'un coup d'oeil ! - Copyright ORBIFLY Décembre 2007 - Disclaimer

ORBIFLY MET'MAP TEAM :

Programmation & Développement : Alexandra Zaïnal
Sur une idée originale de : Baudouin d'Aumeries
Soutien technique & logistique : Manuel Goepfert
Assistance : Marc-Olivier Méhu




SOURCES & CREDITS :

   NOAA